Latest Weather Observations for Swan Island

IDT60801

Issued at 6:35 pm EDT Sunday 26 October 2014 (issued every 30 minutes, with the page automatically refreshed every 10 minutes)

About weather observations | Map of weather stations | Latest weather observations for TAS | Other Formats
Station Details ID: 092123 Name: SWAN ISLAND Lat: -40.73 Lon: 148.12 Height: 15.0 m
Data from the previous 72 hours. | See also: Recent months at Swan Island
Date/Time
EDT
Temp
°C
App
Temp
°C
Dew
Point
Rel
Hum
%
Delta-T
°C
Wind Press
QNH
hPa
Press
MSL
hPa
Rain
since 9 am
mm
Dir
 
Spd
km/h
Gust
km/h
Spd
kts
Gust
kts
26/06:30pm 15.0 - - - - E 15 19 8 10 1011.0 1010.9 0.0
26/06:00pm 15.4 - - - - E 15 19 8 10 1010.9 1010.8 0.0
26/05:30pm 15.8 - - - - E 13 15 7 8 1011.4 1011.3 0.0
26/05:00pm 15.8 - - - - E 11 15 6 8 1011.4 1011.3 0.0
26/04:30pm 16.1 - - - - E 13 17 7 9 1011.5 1011.4 0.0
26/04:00pm 16.6 - - - - E 13 17 7 9 1011.7 1011.6 0.0
26/03:30pm 17.1 - - - - E 13 19 7 10 1011.7 1011.6 0.0
26/03:00pm 17.6 - - - - E 15 19 8 10 1011.8 1011.7 0.0
26/02:30pm 17.7 - - - - ESE 15 19 8 10 1012.1 1012.0 0.0
26/02:00pm 17.0 - - - - E 15 19 8 10 1012.1 1012.0 0.0
26/01:30pm 17.6 - - - - E 19 22 10 12 1012.2 1012.1 0.0
26/01:00pm 16.3 - - - - ESE 17 20 9 11 1012.4 1012.4 0.0
26/12:30pm 17.2 - - - - SE 17 20 9 11 1012.9 1012.9 0.0
26/12:00pm 16.4 - - - - SE 15 20 8 11 1013.0 1013.0 0.0
26/11:30am 15.5 - - - - ESE 15 20 8 11 1012.9 1012.9 0.0
26/11:00am 16.2 - - - - SE 20 24 11 13 1013.1 1013.1 0.0
26/10:30am 15.8 - - - - SE 22 26 12 14 1013.2 1013.2 0.0
26/10:00am 15.2 - - - - SE 17 22 9 12 1013.3 1013.3 0.0
26/09:30am 15.2 - - - - SE 19 22 10 12 1013.4 1013.4 0.0
26/09:00am 14.9 - - - - SE 17 19 9 10 1013.5 1013.5 0.0
26/08:30am 14.8 - - - - ESE 19 20 10 11 1013.2 1013.2 0.0
26/08:00am 14.5 - - - - SE 15 19 8 10 1013.1 1013.1 0.0
26/07:30am 14.3 - - - - SE 13 15 7 8 1013.2 1013.2 0.0
26/07:00am 14.2 - - - - SE 15 19 8 10 1013.0 1013.0 0.0
26/06:30am 14.1 - - - - SE 13 17 7 9 1013.1 1013.1 0.0
26/06:00am 14.0 - - - - ESE 15 19 8 10 1013.0 1013.0 0.0
26/05:30am 13.9 - - - - ESE 17 19 9 10 1012.6 1012.6 0.0
26/05:00am 13.9 - - - - ESE 15 19 8 10 1012.8 1012.8 0.0
26/04:30am 13.8 - - - - E 13 17 7 9 1012.8 1012.8 0.0
26/04:00am 13.8 - - - - ESE 13 15 7 8 1012.8 1012.8 0.0
26/03:30am 13.9 - - - - ESE 17 20 9 11 1013.6 1013.6 0.0
26/03:00am 14.0 - - - - SE 13 15 7 8 1014.3 1014.3 0.0
26/02:30am 14.0 - - - - SE 11 15 6 8 1014.6 1014.6 0.0
26/02:00am 14.0 - - - - ESE 9 13 5 7 1015.1 1015.1 0.0
26/01:30am 14.0 - - - - ESE 15 17 8 9 1015.5 1015.5 0.0
26/01:00am 14.1 - - - - ESE 11 13 6 7 1016.0 1016.0 0.0
26/12:30am 14.1 - - - - ESE 15 17 8 9 1016.1 1016.1 0.0
26/12:00am 14.1 - - - - E 15 17 8 9 1016.2 1016.2 0.0
 
Date/Time
EDT
Temp
°C
App
Temp
°C
Dew
Point
Rel
Hum
%
Delta-T
°C
Wind Press
QNH
hPa
Press
MSL
hPa
Rain
since 9 am
mm
Dir
 
Spd
km/h
Gust
km/h
Spd
kts
Gust
kts
25/11:30pm 14.0 - - - - E 17 20 9 11 1016.1 1016.1 0.0
25/11:00pm 14.1 - - - - E 19 22 10 12 1016.1 1016.1 0.0
25/10:30pm 14.2 - - - - E 20 24 11 13 1016.6 1016.6 0.0
25/10:00pm 14.1 - - - - E 19 22 10 12 1017.0 1017.0 0.0
25/09:30pm 14.2 - - - - E 19 20 10 11 1017.3 1017.3 0.0
25/09:00pm 14.2 - - - - E 19 22 10 12 1017.3 1017.3 0.0
25/08:30pm 14.2 - - - - E 19 22 10 12 1016.9 1016.9 0.0
25/08:00pm 14.1 - - - - E 19 24 10 13 1016.6 1016.6 0.0
25/07:30pm 14.3 - - - - E 19 20 10 11 1016.2 1016.2 0.0
25/07:00pm 14.6 - - - - E 19 20 10 11 1016.2 1016.2 0.0
25/06:30pm 14.8 - - - - ESE 19 22 10 12 1015.9 1015.9 0.0
25/06:00pm 15.1 - - - - E 19 22 10 12 1015.9 1015.9 0.0
25/05:30pm 15.3 - - - - ESE 19 24 10 13 1015.7 1015.7 0.0
25/05:00pm 15.7 - - - - E 19 22 10 12 1015.3 1015.3 0.0
25/04:30pm 15.6 - - - - E 15 19 8 10 1015.6 1015.6 0.0
25/04:00pm 15.8 - - - - E 17 20 9 11 1015.4 1015.4 0.0
25/03:30pm 16.5 - - - - E 19 22 10 12 1015.2 1015.2 0.0
25/03:00pm 17.2 - - - - ESE 15 19 8 10 1015.1 1015.1 0.0
25/02:30pm 16.8 - - - - ESE 9 13 5 7 1015.2 1015.2 0.0
25/02:00pm 17.5 - - - - ESE 6 9 3 5 1015.6 1015.6 0.0
25/01:30pm 15.6 - - - - NW 7 9 4 5 1016.0 1016.0 0.0
25/01:00pm 15.6 - - - - NNW 7 9 4 5 1015.8 1015.8 0.0
25/12:30pm 15.8 - - - - N 6 9 3 5 1015.8 1015.8 0.0
25/12:00pm 15.5 - - - - NW 11 13 6 7 1016.1 1016.1 0.0
25/11:30am 15.7 - - - - NNW 7 9 4 5 1016.0 1016.0 0.0
25/11:00am 15.7 - - - - NNW 11 13 6 7 1015.8 1015.8 0.0
25/10:30am 15.9 - - - - NW 13 15 7 8 1015.5 1015.5 0.0
25/10:00am 16.1 - - - - NW 11 15 6 8 1015.2 1015.2 0.0
25/09:30am 16.5 - - - - W 15 19 8 10 1014.9 1014.9 0.0
25/09:00am 16.3 - - - - WNW 15 22 8 12 1014.8 1014.8 0.0
25/08:30am 15.5 - - - - WNW 19 26 10 14 1014.5 1014.5 0.0
25/08:00am 14.7 - - - - WNW 17 24 9 13 1014.1 1014.1 0.0
25/07:30am 14.2 - - - - WNW 22 28 12 15 1013.7 1013.7 0.0
25/07:00am 13.7 - - - - WNW 17 24 9 13 1013.2 1013.2 0.0
25/06:30am 13.4 - - - - WNW 19 26 10 14 1012.8 1012.8 0.0
25/06:00am 13.0 - - - - W 13 20 7 11 1012.3 1012.2 0.0
25/05:30am 13.3 - - - - WNW 17 26 9 14 1011.7 1011.6 0.0
25/05:00am 13.5 - - - - WNW 24 37 13 20 1010.9 1010.8 0.0
25/04:30am 13.4 - - - - WNW 20 30 11 16 1010.3 1010.3 0.0
25/04:00am 13.4 - - - - W 24 35 13 19 1010.3 1010.3 0.0
25/03:30am 13.7 - - - - W 20 30 11 16 1010.3 1010.3 0.0
25/03:00am 13.9 - - - - WNW 24 33 13 18 1010.1 1010.1 0.0
25/02:30am 13.9 - - - - W 26 35 14 19 1010.4 1010.4 0.0
25/02:00am 13.9 - - - - WNW 19 30 10 16 1010.3 1010.3 0.0
25/01:30am 13.9 - - - - WNW 26 35 14 19 1010.2 1010.2 0.0
25/01:00am 13.8 - - - - WNW 22 30 12 16 1010.2 1010.2 0.0
25/12:30am 13.8 - - - - WNW 22 30 12 16 1010.0 1010.0 0.0
25/12:00am 14.1 - - - - WNW 19 28 10 15 1010.1 1010.1 0.0
 
Date/Time
EDT
Temp
°C
App
Temp
°C
Dew
Point
Rel
Hum
%
Delta-T
°C
Wind Press
QNH
hPa
Press
MSL
hPa
Rain
since 9 am
mm
Dir
 
Spd
km/h
Gust
km/h
Spd
kts
Gust
kts
24/11:30pm 14.3 - - - - WNW 20 30 11 16 1010.0 1010.0 0.0
24/11:00pm 14.4 - - - - NW 17 22 9 12 1010.0 1010.0 0.0
24/10:30pm 14.6 - - - - NW 17 22 9 12 1009.9 1009.9 0.0
24/10:00pm 14.8 - - - - NW 19 24 10 13 1010.2 1010.2 0.0
24/09:30pm 15.1 - - - - NW 15 20 8 11 1010.3 1010.3 0.0
24/09:00pm 14.8 - - - - N 4 6 2 3 1010.0 1010.0 0.0
24/08:30pm 14.9 - - - - N 2 6 1 3 1009.6 1009.6 0.0
24/08:00pm 15.4 - - - - N 2 6 1 3 1009.7 1009.7 0.0
24/07:30pm 15.7 - - - - N 11 15 6 8 1009.5 1009.5 0.0
24/07:00pm 15.9 - - - - N 6 9 3 5 1009.6 1009.6 0.0
24/06:30pm 15.9 - - - - NE 11 19 6 10 1009.2 1009.2 0.0
24/06:00pm 15.9 - - - - NE 15 17 8 9 1009.5 1009.5 0.0
24/05:30pm 15.7 - - - - ENE 13 15 7 8 1010.0 1010.0 0.0
24/05:00pm 15.7 - - - - ENE 15 17 8 9 1010.2 1010.2 0.0
24/04:30pm 15.7 - - - - E 17 22 9 12 1010.3 1010.3 0.0
24/04:00pm 15.5 - - - - E 20 24 11 13 1010.9 1010.8 0.0
24/03:30pm 15.3 - - - - E 22 26 12 14 1011.5 1011.4 0.0
24/03:00pm 15.0 - - - - E 24 28 13 15 1012.0 1011.9 0.0
24/02:30pm 15.0 - - - - E 17 22 9 12 1012.9 1012.9 0.0
24/02:00pm 15.1 - - - - E 19 22 10 12 1013.5 1013.5 0.0
24/01:30pm 15.2 - - - - E 20 26 11 14 1014.1 1014.1 0.0
24/01:00pm 15.4 - - - - E 28 32 15 17 1014.3 1014.3 0.0
24/12:30pm 15.4 - - - - E 26 30 14 16 1014.6 1014.6 0.0
24/12:00pm 15.5 - - - - E 28 33 15 18 1015.2 1015.2 0.0
24/11:30am 15.4 - - - - E 30 35 16 19 1015.9 1015.9 0.0
24/11:00am 15.4 - - - - E 28 33 15 18 1016.3 1016.3 0.0
24/10:30am 15.0 - - - - E 32 39 17 21 1016.6 1016.6 0.0
24/10:00am 14.6 - - - - E 33 39 18 21 1017.1 1017.1 0.0
24/09:30am 14.4 - - - - E 33 37 18 20 1017.6 1017.6 0.0
24/09:00am 14.3 - - - - E 32 39 17 21 1018.2 1018.2 0.0
24/08:30am 14.3 - - - - E 35 41 19 22 1018.5 1018.5 0.0
24/08:00am 14.2 - - - - E 33 41 18 22 1018.8 1018.8 0.0
24/07:30am 14.2 - - - - E 33 43 18 23 1019.1 1019.1 0.0
24/07:00am 14.1 - - - - E 33 41 18 22 1019.1 1019.1 0.0
24/06:30am 14.0 - - - - E 33 39 18 21 1019.2 1019.2 0.0
24/06:00am 14.0 - - - - E 37 43 20 23 1019.4 1019.4 0.0
24/05:30am 13.9 - - - - E 32 39 17 21 1019.7 1019.7 0.0
24/05:00am 13.7 - - - - E 35 44 19 24 1019.9 1019.9 0.0
24/04:30am 13.8 - - - - E 33 41 18 22 1020.3 1020.3 0.0
24/04:00am 13.6 - - - - E 32 39 17 21 1020.8 1020.8 0.0
24/03:30am 13.6 - - - - E 35 43 19 23 1021.1 1021.1 0.0
24/03:00am 13.5 - - - - E 39 48 21 26 1021.2 1021.2 0.0
24/02:30am 13.6 - - - - ESE 35 43 19 23 1021.2 1021.2 0.0
24/02:00am 13.6 - - - - ESE 35 41 19 22 1021.7 1021.7 0.0
24/01:30am 13.4 - - - - ESE 37 44 20 24 1022.1 1022.1 0.0
24/01:00am 13.3 - - - - ESE 37 44 20 24 1022.8 1022.8 0.0
24/12:30am 13.1 - - - - ESE 39 50 21 27 1023.2 1023.2 0.0
24/12:00am 13.0 - - - - ESE 37 46 20 25 1023.5 1023.5 0.0
 
Date/Time
EDT
Temp
°C
App
Temp
°C
Dew
Point
Rel
Hum
%
Delta-T
°C
Wind Press
QNH
hPa
Press
MSL
hPa
Rain
since 9 am
mm
Dir
 
Spd
km/h
Gust
km/h
Spd
kts
Gust
kts
23/11:30pm 13.3 - - - - ESE 39 48 21 26 1024.0 1024.0 0.0
23/11:00pm 13.2 - - - - ESE 41 50 22 27 1024.2 1024.2 0.0
23/10:30pm 13.2 - - - - ESE 43 50 23 27 1024.4 1024.4 0.0
23/10:00pm 13.2 - - - - ESE 44 52 24 28 1024.4 1024.4 0.0
23/09:30pm 13.0 - - - - ESE 43 52 23 28 1024.4 1024.4 0.0
23/09:00pm 13.0 - - - - ESE 43 52 23 28 1024.2 1024.2 0.0
23/08:30pm 12.9 - - - - ESE 41 48 22 26 1024.0 1024.0 0.0
23/08:00pm 12.8 - - - - ESE 43 52 23 28 1023.7 1023.7 0.0
23/07:30pm 12.8 - - - - ESE 41 56 22 30 1023.6 1023.6 0.0
23/07:00pm 13.1 - - - - SE 41 56 22 30 1023.5 1023.5 0.0

Other Formats:

Comma delimited format used in spreadsheet applications
http://www.bom.gov.au/fwo/IDT60801/IDT60801.95985.axf

JavaScript Object Notation format (JSON) in row-major order
http://www.bom.gov.au/fwo/IDT60801/IDT60801.95985.json